Time;durP1;ratioP1;P1;durP2;ratioP2;P2;SDS_P1;SDS_P2;PMS_P1;PMS_P2;Temp;Humidity;BMP_temperature;BMP_pressure;BME280_temperature;BME280_humidity;BME280_pressure;Samples;Min_cycle;Max_cycle;Signal;HPM_P1;HPM_P2
2023/12/06 00:01:46;;;;;;;27.70;13.55;;;;;;;2.44;100.00;101199.56;6075755;19;20309;-70
2023/12/06 00:03:52;;;;;;;33.33;14.48;;;;;;;2.42;100.00;101198.72;6078817;19;20010;-71
2023/12/06 00:05:58;;;;;;;29.52;15.32;;;;;;;2.42;100.00;101196.13;6078083;19;20009;-72
2023/12/06 00:08:04;;;;;;;26.80;13.95;;;;;;;2.45;100.00;101196.13;6081018;19;20091;-70
2023/12/06 00:10:10;;;;;;;34.30;15.40;;;;;;;2.41;100.00;101191.81;6080176;19;20499;-71
2023/12/06 00:12:15;;;;;;;31.42;13.57;;;;;;;2.40;100.00;101200.47;6080832;19;20434;-71
2023/12/06 00:14:21;;;;;;;33.88;16.17;;;;;;;2.40;100.00;101200.47;6081214;19;20007;-70
2023/12/06 00:16:28;;;;;;;35.33;14.23;;;;;;;2.38;100.00;101203.03;6082175;19;20091;-72
2023/12/06 00:18:41;;;;;;;35.00;16.60;;;;;;;2.38;100.00;101209.97;6082769;19;20018;-73
2023/12/06 00:20:48;;;;;;;39.15;15.90;;;;;;;2.40;100.00;101206.50;6076833;19;20487;-73
2023/12/06 00:22:51;;;;;;;32.08;14.77;;;;;;;2.39;100.00;101209.94;6079137;19;20010;-73
2023/12/06 00:24:59;;;;;;;36.25;14.70;;;;;;;2.40;100.00;101209.09;6081462;19;20003;-73
2023/12/06 00:27:04;;;;;;;29.60;13.63;;;;;;;2.40;100.00;101221.22;6082765;19;20659;-73
2023/12/06 00:29:09;;;;;;;29.10;13.48;;;;;;;2.38;100.00;101228.97;6079137;19;20389;-72
2023/12/06 00:31:13;;;;;;;27.00;14.02;;;;;;;2.37;100.00;101221.19;6077761;19;20110;-71
2023/12/06 00:33:18;;;;;;;33.13;14.98;;;;;;;2.39;100.00;101222.06;6081481;19;20364;-70
2023/12/06 00:35:24;;;;;;;31.95;14.60;;;;;;;2.39;100.00;101228.09;6083475;19;20011;-69
2023/12/06 00:37:29;;;;;;;33.40;15.98;;;;;;;2.38;100.00;101234.16;6087279;19;20078;-70
2023/12/06 00:39:34;;;;;;;35.28;17.42;;;;;;;2.39;100.00;101225.50;6087252;19;20062;-70
2023/12/06 00:41:42;;;;;;;29.52;13.23;;;;;;;2.41;100.00;101233.31;6088301;19;20002;-72
2023/12/06 00:43:47;;;;;;;31.23;15.43;;;;;;;2.42;100.00;101238.50;6087610;19;20020;-71
2023/12/06 00:45:52;;;;;;;29.75;14.93;;;;;;;2.44;100.00;101240.22;6081564;19;20126;-72
2023/12/06 00:47:57;;;;;;;35.75;15.32;;;;;;;2.42;100.00;101240.22;6087259;19;20038;-72
2023/12/06 00:50:02;;;;;;;29.17;15.43;;;;;;;2.43;100.00;101236.78;6085882;19;20413;-71
2023/12/06 00:52:09;;;;;;;31.75;15.30;;;;;;;2.41;100.00;101233.31;6086194;19;20882;-70
2023/12/06 00:54:15;;;;;;;30.20;13.50;;;;;;;2.41;100.00;101238.50;6086040;19;20038;-70
2023/12/06 00:56:20;;;;;;;28.40;13.55;;;;;;;2.42;100.00;101238.50;6087330;19;20016;-72
2023/12/06 00:58:28;;;;;;;29.23;14.18;;;;;;;2.41;100.00;101243.69;6085389;19;20542;-72
2023/12/06 01:00:33;;;;;;;34.53;16.23;;;;;;;2.42;100.00;101250.59;6082103;19;20020;-71
2023/12/06 01:02:40;;;;;;;29.55;15.30;;;;;;;2.42;100.00;101245.41;6086096;19;20078;-73
2023/12/06 01:04:46;;;;;;;38.65;15.18;;;;;;;2.45;100.00;101255.78;6083354;19;20014;-72
2023/12/06 01:06:48;;;;;;;29.52;14.40;;;;;;;2.44;100.00;101259.25;6084660;19;20907;-72
2023/12/06 01:08:53;;;;;;;28.38;14.43;;;;;;;2.42;100.00;101256.66;6086638;19;20530;-72
2023/12/06 01:10:56;;;;;;;29.42;13.93;;;;;;;2.45;100.00;101263.56;6080252;19;20018;-73
2023/12/06 01:13:01;;;;;;;30.63;15.10;;;;;;;2.45;100.00;101266.16;6079640;19;20010;-72
2023/12/06 01:15:10;;;;;;;30.23;15.02;;;;;;;2.48;100.00;101268.75;6085056;19;20011;-72
2023/12/06 01:17:15;;;;;;;34.90;14.77;;;;;;;2.49;100.00;101265.28;6085796;19;20694;-74
2023/12/06 01:19:20;;;;;;;30.20;14.50;;;;;;;2.50;100.00;101258.38;6080989;19;20022;-73
2023/12/06 01:21:25;;;;;;;30.00;14.90;;;;;;;2.50;100.00;101267.03;6085301;19;20691;-74
2023/12/06 01:23:40;;;;;;;28.25;14.27;;;;;;;2.49;100.00;101270.47;6087153;19;20010;-71
2023/12/06 01:25:45;;;;;;;22.73;12.77;;;;;;;2.54;100.00;101271.34;6087543;19;20015;-73
2023/12/06 01:27:50;;;;;;;28.63;12.70;;;;;;;2.53;100.00;101272.22;6085684;19;20421;-73
2023/12/06 01:29:56;;;;;;;33.55;17.13;;;;;;;2.55;100.00;101274.78;6087486;19;20014;-73
2023/12/06 01:32:17;;;;;;;27.55;13.00;;;;;;;2.53;100.00;101269.63;6086339;19;20010;-71
2023/12/06 01:34:22;;;;;;;31.00;14.80;;;;;;;2.52;100.00;101272.22;6086191;19;20027;-70
2023/12/06 01:36:28;;;;;;;29.73;13.27;;;;;;;2.49;100.00;101275.66;6081592;19;20015;-73
2023/12/06 01:38:33;;;;;;;27.05;13.63;;;;;;;2.46;100.00;101275.66;6086503;19;20039;-71
2023/12/06 01:40:39;;;;;;;33.35;15.63;;;;;;;2.42;100.00;101279.13;6081660;19;20031;-72
2023/12/06 01:42:48;;;;;;;38.08;15.90;;;;;;;2.42;100.00;101284.31;6084862;19;20034;-73
2023/12/06 01:44:53;;;;;;;29.35;13.73;;;;;;;2.42;100.00;101289.50;6085957;19;20126;-73
2023/12/06 01:47:00;;;;;;;32.35;12.93;;;;;;;2.39;100.00;101285.16;6080316;19;20099;-71
2023/12/06 01:49:10;;;;;;;29.10;14.52;;;;;;;2.38;100.00;101280.00;6087889;19;20027;-71
2023/12/06 01:51:20;;;;;;;30.38;14.60;;;;;;;2.36;100.00;101281.72;6086627;19;20729;-71
2023/12/06 01:53:22;;;;;;;30.00;13.68;;;;;;;2.33;100.00;101284.31;6083104;19;20014;-72
2023/12/06 01:55:27;;;;;;;38.03;14.07;;;;;;;2.33;100.00;101284.31;6087330;19;20512;-70
2023/12/06 01:57:31;;;;;;;33.13;16.70;;;;;;;2.34;100.00;101292.09;6086502;19;20475;-71
2023/12/06 01:59:36;;;;;;;27.88;13.48;;;;;;;2.32;100.00;101298.16;6085567;19;20592;-71
2023/12/06 02:01:42;;;;;;;27.92;15.98;;;;;;;2.28;100.00;101293.81;6080426;19;20027;-71
2023/12/06 02:03:45;;;;;;;32.00;14.32;;;;;;;2.28;100.00;101297.28;6082422;19;20003;-71
2023/12/06 02:05:56;;;;;;;29.52;13.75;;;;;;;2.31;100.00;101296.41;6084023;19;20449;-70
2023/12/06 02:07:59;;;;;;;28.17;14.10;;;;;;;2.36;100.00;101307.66;6080420;19;20039;-70
2023/12/06 02:10:04;;;;;;;32.88;14.60;;;;;;;2.32;100.00;101303.34;6085316;19;20038;-71
2023/12/06 02:12:10;;;;;;;26.60;13.57;;;;;;;2.35;100.00;101305.94;6085198;19;20006;-70
2023/12/06 02:14:15;;;;;;;28.20;15.27;;;;;;;2.36;100.00;101308.50;6084561;19;20023;-72
2023/12/06 02:16:20;;;;;;;35.05;16.35;;;;;;;2.36;100.00;101316.28;6085963;19;20021;-70
2023/12/06 02:18:27;;;;;;;30.92;15.77;;;;;;;2.41;100.00;101313.72;6084463;19;20326;-71
2023/12/06 02:20:33;;;;;;;33.80;14.73;;;;;;;2.43;100.00;101312.00;6084183;19;20050;-71
2023/12/06 02:22:41;;;;;;;29.90;14.57;;;;;;;2.50;100.00;101315.44;6084254;19;20042;-72
2023/12/06 02:24:48;;;;;;;29.15;14.57;;;;;;;2.50;100.00;101315.44;6080117;19;20027;-69
2023/12/06 02:26:56;;;;;;;38.25;17.70;;;;;;;2.50;100.00;101313.72;6079319;19;20038;-71
2023/12/06 02:29:01;;;;;;;28.25;14.52;;;;;;;2.59;100.00;101312.84;6083012;19;20627;-70
2023/12/06 02:31:06;;;;;;;30.67;13.68;;;;;;;2.67;100.00;101313.72;6085160;19;20986;-71
2023/12/06 02:33:11;;;;;;;36.20;15.40;;;;;;;2.64;100.00;101319.78;6083202;19;20015;-70
2023/12/06 02:35:21;;;;;;;26.88;13.85;;;;;;;2.69;100.00;101316.31;6083229;19;20007;-72
2023/12/06 02:37:26;;;;;;;22.98;13.55;;;;;;;2.78;100.00;101324.94;6083909;19;20558;-72
2023/12/06 02:39:36;;;;;;;26.00;12.25;;;;;;;2.82;100.00;101315.44;6082332;19;20078;-70
2023/12/06 02:41:42;;;;;;;24.63;12.45;;;;;;;2.84;100.00;101311.09;6081940;19;20548;-71
2023/12/06 02:43:49;;;;;;;28.08;10.88;;;;;;;2.97;100.00;101319.72;6084376;19;20458;-70
2023/12/06 02:45:55;;;;;;;27.02;11.60;;;;;;;3.06;100.00;101322.34;6084283;19;20565;-71
2023/12/06 02:47:57;;;;;;;17.38;8.73;;;;;;;3.21;100.00;101321.41;6081743;19;20484;-72
2023/12/06 02:50:02;;;;;;;19.55;9.55;;;;;;;3.25;100.00;101325.75;6082572;19;20024;-72
2023/12/06 02:52:08;;;;;;;20.88;8.07;;;;;;;3.28;100.00;101326.59;6080563;19;20017;-70
2023/12/06 02:54:13;;;;;;;24.48;8.93;;;;;;;3.37;100.00;101325.72;6080763;19;20003;-71
2023/12/06 02:56:18;;;;;;;19.05;8.95;;;;;;;3.43;100.00;101333.50;6078019;19;20010;-71
2023/12/06 02:58:23;;;;;;;20.95;8.70;;;;;;;3.47;100.00;101321.34;6080278;19;20010;-71
2023/12/06 03:00:31;;;;;;;20.20;7.60;;;;;;;3.46;100.00;101333.47;6074357;19;20014;-72
2023/12/06 03:02:36;;;;;;;19.08;9.57;;;;;;;3.45;100.00;101331.75;6080585;19;20035;-71
2023/12/06 03:04:41;;;;;;;21.15;9.93;;;;;;;3.48;100.00;101328.28;6080542;19;20025;-71
2023/12/06 03:06:46;;;;;;;19.98;9.07;;;;;;;3.39;100.00;101323.97;6077106;19;20433;-71
2023/12/06 03:08:51;;;;;;;17.80;8.25;;;;;;;3.35;100.00;101321.41;6084398;19;20113;-72
2023/12/06 03:10:56;;;;;;;22.25;9.30;;;;;;;3.33;100.00;101321.38;6078157;19;20010;-71
2023/12/06 03:13:01;;;;;;;18.95;8.50;;;;;;;3.30;100.00;101321.41;6081231;19;20797;-71
2023/12/06 03:15:07;;;;;;;16.10;8.43;;;;;;;3.28;100.00;101323.13;6083822;19;20145;-71
2023/12/06 03:17:15;;;;;;;22.20;8.73;;;;;;;3.27;100.00;101313.63;6078863;19;20010;-72
2023/12/06 03:19:20;;;;;;;21.63;9.43;;;;;;;3.24;100.00;101322.28;6081348;19;20501;-72
2023/12/06 03:21:22;;;;;;;18.20;8.30;;;;;;;3.21;100.00;101322.31;6081226;19;20603;-72
2023/12/06 03:23:30;;;;;;;19.88;8.65;;;;;;;3.19;100.00;101325.78;6083092;19;22362;-71
2023/12/06 03:25:35;;;;;;;21.13;8.80;;;;;;;3.21;100.00;101331.81;6082963;19;20017;-71
2023/12/06 03:27:42;;;;;;;14.55;7.68;;;;;;;3.17;100.00;101325.75;6080759;19;20011;-70
2023/12/06 03:29:47;;;;;;;16.88;7.75;;;;;;;3.18;100.00;101326.63;6083279;19;20026;-70
2023/12/06 03:31:52;;;;;;;19.15;7.75;;;;;;;3.20;100.00;101322.28;6081873;19;20104;-71
2023/12/06 03:34:00;;;;;;;13.48;6.70;;;;;;;3.16;100.00;101330.94;6082620;19;20098;-71
2023/12/06 03:36:06;;;;;;;17.65;7.57;;;;;;;3.11;100.00;101330.09;6076904;19;20007;-71
2023/12/06 03:38:11;;;;;;;13.93;7.22;;;;;;;3.13;100.00;101328.34;6083079;19;20010;-71
2023/12/06 03:40:16;;;;;;;20.85;8.18;;;;;;;3.13;100.00;101338.75;6083722;19;20006;-71
2023/12/06 03:42:22;;;;;;;18.23;7.72;;;;;;;3.10;100.00;101334.44;6082496;19;20021;-70
2023/12/06 03:44:27;;;;;;;18.15;8.38;;;;;;;3.11;100.00;101328.38;6081622;19;20027;-70
2023/12/06 03:46:32;;;;;;;18.20;8.85;;;;;;;3.12;100.00;101324.91;6081075;19;20352;-70
2023/12/06 03:48:37;;;;;;;20.58;8.13;;;;;;;3.19;100.00;101320.59;6082175;19;20010;-70
2023/12/06 03:50:45;;;;;;;17.55;8.45;;;;;;;3.20;100.00;101327.50;6084354;19;20011;-71
2023/12/06 03:52:48;;;;;;;18.30;8.02;;;;;;;3.27;100.00;101330.06;6078492;19;20406;-71
2023/12/06 03:54:53;;;;;;;18.30;8.77;;;;;;;3.29;100.00;101335.25;6082121;19;20414;-70
2023/12/06 03:56:59;;;;;;;18.27;9.02;;;;;;;3.29;100.00;101330.03;6081164;19;20011;-71
2023/12/06 03:59:06;;;;;;;18.48;10.30;;;;;;;3.29;100.00;101338.72;6081019;19;20025;-71
2023/12/06 04:01:13;;;;;;;18.05;9.88;;;;;;;3.29;100.00;101340.44;6080135;19;20512;-70
2023/12/06 04:03:19;;;;;;;19.30;8.80;;;;;;;3.33;100.00;101344.78;6081407;19;20024;-71
2023/12/06 04:05:27;;;;;;;19.83;9.93;;;;;;;3.30;100.00;101342.19;6082008;19;20014;-71
2023/12/06 04:07:35;;;;;;;20.92;10.07;;;;;;;3.27;100.00;101347.41;6080608;19;20035;-71
2023/12/06 04:09:40;;;;;;;21.92;8.85;;;;;;;3.25;100.00;101349.13;6081015;19;20014;-71
2023/12/06 04:11:45;;;;;;;22.60;11.80;;;;;;;3.24;100.00;101355.19;6086542;19;20515;-71
2023/12/06 04:13:51;;;;;;;22.80;10.55;;;;;;;3.22;100.00;101344.78;6086782;19;20543;-71
2023/12/06 04:15:56;;;;;;;22.25;10.98;;;;;;;3.22;100.00;101356.94;6088547;19;20007;-71
2023/12/06 04:18:02;;;;;;;23.92;10.07;;;;;;;3.19;100.00;101356.94;6088006;19;20021;-71
2023/12/06 04:20:08;;;;;;;24.55;11.15;;;;;;;3.22;100.00;101360.38;6081779;19;20005;-71
2023/12/06 04:22:17;;;;;;;24.38;11.50;;;;;;;3.22;100.00;101367.31;6085611;19;20459;-71
2023/12/06 04:24:31;;;;;;;18.77;9.77;;;;;;;3.22;100.00;101367.31;6088882;19;20353;-72
2023/12/06 04:26:34;;;;;;;18.20;10.75;;;;;;;3.19;100.00;101362.13;6088792;19;20560;-71
2023/12/06 04:28:39;;;;;;;28.55;11.88;;;;;;;3.20;100.00;101369.03;6087080;19;20007;-70
2023/12/06 04:30:47;;;;;;;25.13;11.63;;;;;;;3.35;100.00;101366.41;6087358;19;20011;-70
2023/12/06 04:32:49;;;;;;;23.02;10.20;;;;;;;3.37;100.00;101369.88;6082084;19;20549;-69
2023/12/06 04:34:56;;;;;;;28.15;10.13;;;;;;;3.44;100.00;101356.00;6086981;19;20027;-71
2023/12/06 04:37:01;;;;;;;25.98;11.02;;;;;;;3.59;100.00;101354.22;6086860;19;20602;-70
2023/12/06 04:39:06;;;;;;;25.80;12.27;;;;;;;3.60;100.00;101353.34;6085681;19;20018;-71
2023/12/06 04:41:13;;;;;;;22.75;11.35;;;;;;;3.66;100.00;101364.59;6086974;19;20021;-70
2023/12/06 04:43:19;;;;;;;22.88;10.77;;;;;;;3.61;100.00;101368.94;6084539;19;20011;-71
2023/12/06 04:45:27;;;;;;;27.27;10.32;;;;;;;3.67;100.00;101366.31;6083984;19;20011;-70
2023/12/06 04:47:33;;;;;;;31.23;12.15;;;;;;;3.69;100.00;101372.38;6084696;19;20038;-72
2023/12/06 04:49:38;;;;;;;28.17;10.93;;;;;;;3.70;100.00;101376.69;6085591;19;20011;-72
2023/12/06 04:51:43;;;;;;;18.35;9.98;;;;;;;3.63;100.00;101376.72;6085131;19;20019;-72
2023/12/06 04:53:48;;;;;;;19.67;9.65;;;;;;;3.60;100.00;101381.94;6080397;19;20799;-71
2023/12/06 04:55:53;;;;;;;19.80;8.45;;;;;;;3.65;100.00;101386.25;6086376;19;20506;-71
2023/12/06 04:58:01;;;;;;;16.67;8.10;;;;;;;3.64;100.00;101383.66;6087144;19;20020;-72
2023/12/06 05:00:07;;;;;;;17.27;8.73;;;;;;;3.69;100.00;101385.38;6084539;19;20027;-72
2023/12/06 05:02:12;;;;;;;21.88;8.73;;;;;;;3.69;100.00;101379.31;6088135;19;20117;-71
2023/12/06 05:04:14;;;;;;;24.77;9.93;;;;;;;3.70;100.00;101391.44;6083677;19;20447;-71
2023/12/06 05:06:20;;;;;;;16.65;9.85;;;;;;;3.71;100.00;101395.75;6084303;19;20002;-71
2023/12/06 05:08:25;;;;;;;23.05;9.23;;;;;;;3.68;100.00;101393.16;6086118;19;20426;-71
2023/12/06 05:10:28;;;;;;;18.70;8.85;;;;;;;3.76;100.00;101403.53;6086605;19;20459;-70
2023/12/06 05:12:34;;;;;;;19.67;9.45;;;;;;;3.71;100.00;101401.84;6084626;19;20010;-74
2023/12/06 05:14:41;;;;;;;18.67;7.47;;;;;;;3.67;100.00;101394.91;6084840;19;20003;-71
2023/12/06 05:16:46;;;;;;;15.07;8.07;;;;;;;3.70;100.00;101396.63;6087366;19;20045;-71
2023/12/06 05:18:51;;;;;;;25.20;9.18;;;;;;;3.65;100.00;101407.03;6087421;19;20014;-71
2023/12/06 05:20:56;;;;;;;22.45;9.20;;;;;;;3.66;100.00;101408.78;6080241;19;20522;-71
2023/12/06 05:23:02;;;;;;;18.00;8.23;;;;;;;3.70;100.00;101404.44;6080139;19;20007;-70
2023/12/06 05:25:08;;;;;;;17.83;9.40;;;;;;;3.74;100.00;101407.03;6086764;19;20077;-72
2023/12/06 05:27:18;;;;;;;13.50;7.15;;;;;;;3.76;100.00;101400.94;6083296;19;20282;-72
2023/12/06 05:29:22;;;;;;;20.80;7.95;;;;;;;3.75;100.00;101405.28;6083614;19;20011;-70
2023/12/06 05:31:30;;;;;;;15.55;8.00;;;;;;;3.79;100.00;101409.63;6084523;19;20093;-71
2023/12/06 05:33:35;;;;;;;15.88;7.75;;;;;;;3.83;100.00;101406.13;6084676;19;20043;-71
2023/12/06 05:35:41;;;;;;;22.85;7.43;;;;;;;3.93;100.00;101404.34;6082436;19;20090;-70
2023/12/06 05:37:46;;;;;;;12.20;6.75;;;;;;;3.92;100.00;101400.00;6083490;19;20026;-72
2023/12/06 05:39:51;;;;;;;21.50;8.35;;;;;;;3.84;100.00;101407.84;6082889;19;20010;-71
2023/12/06 05:41:56;;;;;;;19.10;7.60;;;;;;;3.80;100.00;101400.94;6080541;19;20017;-71
2023/12/06 05:44:01;;;;;;;15.63;7.80;;;;;;;3.75;100.00;101407.88;6085145;19;20704;-70
2023/12/06 05:46:06;;;;;;;15.45;8.20;;;;;;;3.76;100.00;101414.78;6083654;19;20007;-71
2023/12/06 05:48:14;;;;;;;17.10;7.38;;;;;;;3.78;100.00;101420.00;6082580;19;20060;-72
2023/12/06 05:50:19;;;;;;;11.63;6.28;;;;;;;3.85;100.00;101424.31;6085234;19;20046;-71
2023/12/06 05:52:24;;;;;;;20.98;7.13;;;;;;;3.77;100.00;101420.88;6083403;19;20031;-71
2023/12/06 05:54:30;;;;;;;16.20;7.50;;;;;;;3.69;100.00;101424.38;6080143;19;20554;-71
2023/12/06 05:56:35;;;;;;;17.83;6.90;;;;;;;3.68;100.00;101433.00;6083089;19;20020;-73
2023/12/06 05:58:40;;;;;;;18.85;7.57;;;;;;;3.66;100.00;101439.09;6083317;19;20002;-70
2023/12/06 06:00:46;;;;;;;13.15;6.35;;;;;;;3.61;100.00;101431.31;6083496;19;20495;-70
2023/12/06 06:02:52;;;;;;;22.35;8.45;;;;;;;3.62;100.00;101433.03;6083772;19;20017;-71
2023/12/06 06:04:59;;;;;;;20.45;7.97;;;;;;;3.58;100.00;101435.63;6084221;19;20042;-71
2023/12/06 06:07:05;;;;;;;15.02;6.65;;;;;;;3.54;100.00;101433.94;6073989;19;20013;-74
2023/12/06 06:09:11;;;;;;;13.85;6.78;;;;;;;3.42;100.00;101443.47;6083815;19;20023;-72
2023/12/06 06:11:16;;;;;;;17.00;7.75;;;;;;;3.39;100.00;101445.19;6085091;19;20019;-71
2023/12/06 06:13:28;;;;;;;15.45;7.18;;;;;;;3.28;100.00;101442.63;6081356;19;20021;-71
2023/12/06 06:15:34;;;;;;;14.88;8.25;;;;;;;3.16;100.00;101445.22;6082877;19;20010;-71
2023/12/06 06:17:40;;;;;;;16.17;8.10;;;;;;;3.04;100.00;101444.34;6083787;19;20572;-74
2023/12/06 06:19:45;;;;;;;15.48;7.32;;;;;;;3.00;100.00;101452.13;6083953;19;20006;-74
2023/12/06 06:21:52;;;;;;;17.20;9.00;;;;;;;2.85;100.00;101440.88;6084230;19;20027;-74
2023/12/06 06:23:57;;;;;;;14.57;7.30;;;;;;;2.77;100.00;101440.03;6081478;19;20447;-75
2023/12/06 06:26:02;;;;;;;17.38;8.02;;;;;;;2.66;100.00;101446.94;6080402;19;20007;-75
2023/12/06 06:28:07;;;;;;;12.93;6.57;;;;;;;2.58;100.00;101435.63;6081539;19;20483;-74
2023/12/06 06:30:13;;;;;;;17.25;8.63;;;;;;;2.51;100.00;101437.38;6083623;19;20107;-73
2023/12/06 06:32:19;;;;;;;14.20;7.63;;;;;;;2.44;100.00;101438.22;6081795;19;20963;-72
2023/12/06 06:34:26;;;;;;;20.70;8.95;;;;;;;2.34;100.00;101445.13;6083615;19;20039;-73
2023/12/06 06:36:31;;;;;;;19.00;8.32;;;;;;;2.27;100.00;101447.69;6084880;19;20010;-73
2023/12/06 06:38:37;;;;;;;20.45;8.88;;;;;;;2.15;100.00;101451.09;6085100;19;20368;-74
2023/12/06 06:40:42;;;;;;;15.35;7.50;;;;;;;2.06;100.00;101458.84;6084671;19;20442;-73
2023/12/06 06:42:47;;;;;;;16.48;7.63;;;;;;;1.99;100.00;101457.94;6083602;19;20007;-73
2023/12/06 06:44:55;;;;;;;14.38;8.82;;;;;;;1.94;100.00;101467.41;6080700;19;20006;-74
2023/12/06 06:47:00;;;;;;;16.27;7.15;;;;;;;1.85;100.00;101469.97;6084766;19;20349;-74
2023/12/06 06:49:05;;;;;;;17.20;7.88;;;;;;;1.83;100.00;101479.44;6083076;19;20007;-75
2023/12/06 06:51:12;;;;;;;16.17;8.85;;;;;;;1.82;100.00;101472.50;6085988;19;20015;-73
2023/12/06 06:53:17;;;;;;;13.02;7.22;;;;;;;1.74;100.00;101475.09;6080772;19;20010;-73
2023/12/06 06:55:25;;;;;;;15.68;7.90;;;;;;;1.69;100.00;101475.06;6076245;19;20011;-74
2023/12/06 06:57:27;;;;;;;24.05;9.80;;;;;;;1.61;100.00;101473.28;6081482;19;20596;-73
2023/12/06 06:59:34;;;;;;;21.02;9.93;;;;;;;1.57;100.00;101485.31;6083208;19;20483;-74
2023/12/06 07:01:39;;;;;;;21.05;9.65;;;;;;;1.53;100.00;101474.09;6084750;19;20426;-73
2023/12/06 07:03:44;;;;;;;17.48;8.75;;;;;;;1.48;100.00;101477.50;6084315;19;20476;-71
2023/12/06 07:05:48;;;;;;;28.67;9.85;;;;;;;1.48;100.00;101480.09;6080739;19;20006;-74
2023/12/06 07:07:53;;;;;;;18.33;9.60;;;;;;;1.41;100.00;101476.56;6081315;19;20014;-73
2023/12/06 07:09:58;;;;;;;18.95;8.68;;;;;;;1.40;100.00;101480.03;6079936;19;20006;-71
2023/12/06 07:12:08;;;;;;;23.17;10.18;;;;;;;1.41;100.00;101478.31;6082943;19;20591;-72
2023/12/06 07:14:13;;;;;;;15.38;9.02;;;;;;;1.41;100.00;101496.44;6084487;19;20510;-71
2023/12/06 07:16:19;;;;;;;22.52;9.25;;;;;;;1.39;100.00;101495.56;6084125;19;20398;-71
2023/12/06 07:18:24;;;;;;;21.45;9.57;;;;;;;1.37;100.00;101498.16;6083967;19;20082;-74
2023/12/06 07:20:30;;;;;;;19.08;7.95;;;;;;;1.34;100.00;101492.91;6083099;19;20007;-71
2023/12/06 07:22:47;;;;;;;22.50;9.52;;;;;;;1.43;100.00;101497.31;6083006;19;20598;-74
2023/12/06 07:24:52;;;;;;;18.92;9.65;;;;;;;1.47;100.00;101506.84;6082112;19;20513;-72
2023/12/06 07:27:00;;;;;;;25.75;8.95;;;;;;;1.47;100.00;101512.88;6079831;19;20773;-73
2023/12/06 07:29:08;;;;;;;17.10;9.13;;;;;;;1.48;100.00;101511.19;6081561;19;20011;-71
2023/12/06 07:31:13;;;;;;;18.70;8.80;;;;;;;1.49;100.00;101503.41;6084703;19;20014;-71
2023/12/06 07:33:19;;;;;;;17.92;8.80;;;;;;;1.45;100.00;101506.84;6080630;19;20006;-71
2023/12/06 07:35:26;;;;;;;17.73;8.60;;;;;;;1.38;100.00;101514.53;6077215;19;20405;-71
2023/12/06 07:37:34;;;;;;;16.67;8.25;;;;;;;1.37;100.00;101510.19;6080930;19;20086;-72
2023/12/06 07:39:40;;;;;;;21.08;10.52;;;;;;;1.31;100.00;101514.47;6081721;19;20119;-73
2023/12/06 07:41:45;;;;;;;18.52;9.57;;;;;;;1.25;100.00;101510.97;6083240;19;20340;-71
2023/12/06 07:43:50;;;;;;;14.25;7.85;;;;;;;1.22;100.00;101517.00;6085470;19;20467;-72
2023/12/06 07:45:58;;;;;;;21.65;8.77;;;;;;;1.17;100.00;101525.59;6088094;19;20006;-72
2023/12/06 07:48:02;;;;;;;16.65;8.73;;;;;;;1.17;100.00;101525.59;6087518;19;20007;-71
2023/12/06 07:50:09;;;;;;;18.35;8.32;;;;;;;1.10;100.00;101514.28;6090342;19;20431;-70
2023/12/06 07:52:17;;;;;;;14.77;7.75;;;;;;;1.15;100.00;101522.09;6083413;19;20028;-71
2023/12/06 07:54:22;;;;;;;18.90;8.15;;;;;;;1.17;100.00;101525.59;6087128;19;20034;-71
2023/12/06 07:56:30;;;;;;;13.55;7.28;;;;;;;1.16;100.00;101529.00;6085552;19;20357;-73
2023/12/06 07:58:35;;;;;;;16.38;7.50;;;;;;;1.22;100.00;101535.13;6088313;19;20010;-73
2023/12/06 08:00:37;;;;;;;18.20;9.15;;;;;;;1.20;100.00;101536.81;6086895;19;20014;-73
2023/12/06 08:02:45;;;;;;;14.30;6.82;;;;;;;1.17;100.00;101538.53;6089455;19;20178;-70
2023/12/06 08:04:48;;;;;;;15.05;8.15;;;;;;;1.19;100.00;101540.28;6089737;19;20528;-71
2023/12/06 08:06:53;;;;;;;16.20;7.97;;;;;;;1.19;100.00;101535.09;6089944;19;20509;-69
2023/12/06 08:09:00;;;;;;;13.85;7.85;;;;;;;1.22;100.00;101535.13;6089190;19;20039;-73
2023/12/06 08:11:06;;;;;;;18.92;8.23;;;;;;;1.27;100.00;101533.44;6089635;19;20018;-70
2023/12/06 08:13:11;;;;;;;18.02;7.97;;;;;;;1.28;100.00;101539.47;6086870;19;20007;-73
2023/12/06 08:15:21;;;;;;;11.02;6.47;;;;;;;1.30;100.00;101538.66;6090320;19;20006;-71
2023/12/06 08:17:26;;;;;;;16.00;7.90;;;;;;;1.40;100.00;101544.78;6085187;19;20007;-74
2023/12/06 08:19:34;;;;;;;16.33;7.32;;;;;;;1.60;100.00;101542.34;6087530;19;20010;-70
2023/12/06 08:21:39;;;;;;;18.73;8.15;;;;;;;1.71;100.00;101540.72;6085235;19;20550;-70
2023/12/06 08:23:44;;;;;;;16.95;8.55;;;;;;;1.81;100.00;101545.94;6087536;19;20558;-71
2023/12/06 08:25:47;;;;;;;14.25;7.32;;;;;;;1.81;100.00;101548.53;6087475;19;20042;-74
2023/12/06 08:27:52;;;;;;;21.05;9.57;;;;;;;1.85;100.00;101553.75;6089535;19;20902;-74
2023/12/06 08:29:58;;;;;;;16.05;7.50;;;;;;;1.85;100.00;101563.25;6076531;19;20433;-73
2023/12/06 08:32:04;;;;;;;15.73;7.63;;;;;;;1.81;100.00;101554.56;6086977;19;20046;-71
2023/12/06 08:34:09;;;;;;;12.10;7.10;;;;;;;1.82;100.00;101563.22;6088196;19;20400;-71
2023/12/06 08:36:20;;;;;;;16.25;9.02;;;;;;;1.82;100.00;101561.50;6088448;19;20039;-74
2023/12/06 08:38:25;;;;;;;21.50;8.85;;;;;;;1.90;100.00;101553.78;6088800;19;20024;-75
2023/12/06 08:40:30;;;;;;;17.33;8.25;;;;;;;1.97;100.00;101560.72;6088123;19;20027;-71
2023/12/06 08:42:37;;;;;;;21.95;9.68;;;;;;;2.00;100.00;101563.34;6087654;19;20513;-71
2023/12/06 08:44:44;;;;;;;17.83;9.27;;;;;;;2.09;100.00;101560.81;6086726;19;20030;-74
2023/12/06 08:47:05;;;;;;;14.85;8.73;;;;;;;2.14;100.00;101572.09;6088619;19;20017;-73
2023/12/06 08:49:10;;;;;;;24.17;10.68;;;;;;;2.16;100.00;101562.59;6087050;19;20010;-73
2023/12/06 08:51:18;;;;;;;26.15;12.07;;;;;;;2.22;100.00;101571.28;6087815;19;20360;-72
2023/12/06 08:53:23;;;;;;;17.13;8.32;;;;;;;2.29;100.00;101566.13;6085219;19;20056;-71
2023/12/06 08:55:33;;;;;;;21.15;9.50;;;;;;;2.34;100.00;101573.91;6084542;19;20450;-76
2023/12/06 08:57:39;;;;;;;20.10;8.38;;;;;;;2.34;100.00;101579.09;6086468;19;20010;-72
2023/12/06 08:59:46;;;;;;;17.25;9.98;;;;;;;2.39;100.00;101573.06;6085458;19;20014;-72
2023/12/06 09:01:52;;;;;;;14.80;8.70;;;;;;;2.45;100.00;101577.44;6087144;19;20011;-75
2023/12/06 09:03:57;;;;;;;18.52;8.85;;;;;;;2.43;100.00;101571.38;6087855;19;20011;-73
2023/12/06 09:06:02;;;;;;;20.92;9.88;;;;;;;2.48;100.00;101571.41;6083358;19;20351;-73
2023/12/06 09:08:12;;;;;;;16.55;7.50;;;;;;;2.54;100.00;101579.22;6084397;19;20576;-72
2023/12/06 09:10:17;;;;;;;17.08;8.05;;;;;;;2.57;100.00;101582.66;6086141;19;20017;-73
2023/12/06 09:12:25;;;;;;;14.80;8.38;;;;;;;2.60;100.00;101587.88;6086754;19;20014;-74
2023/12/06 09:14:31;;;;;;;15.50;8.10;;;;;;;2.62;100.00;101593.94;6083694;19;20357;-72
2023/12/06 09:16:33;;;;;;;13.30;7.93;;;;;;;2.75;100.00;101592.25;6085220;19;20026;-71
2023/12/06 09:18:38;;;;;;;;;;;;;;;2.78;100.00;101583.63;6087672;19;20527;-71
2023/12/06 09:20:43;;;;;;;17.67;7.30;;;;;;;2.84;100.00;101579.34;6084464;19;19915;-71
2023/12/06 09:22:48;;;;;;;18.10;6.68;;;;;;;3.01;100.00;101586.28;6085943;19;20006;-71
2023/12/06 09:24:53;;;;;;;15.55;8.02;;;;;;;3.02;100.00;101580.22;6086634;19;20361;-73
2023/12/06 09:27:01;;;;;;;17.52;8.30;;;;;;;3.09;100.00;101587.19;6083639;19;20324;-72
2023/12/06 09:29:05;;;;;;;18.92;7.60;;;;;;;3.15;100.00;101589.78;6084397;19;20007;-75
2023/12/06 09:31:11;;;;;;;13.90;7.47;;;;;;;3.18;100.00;101592.38;6080183;19;20011;-74
2023/12/06 09:33:19;;;;;;;20.85;9.15;;;;;;;3.23;100.00;101585.47;6082213;19;20010;-72
2023/12/06 09:35:25;;;;;;;14.73;7.80;;;;;;;3.34;100.00;101587.22;6084381;19;20401;-73
2023/12/06 09:37:31;;;;;;;15.10;7.20;;;;;;;3.36;100.00;101586.34;6082070;19;20446;-74